createdAt,value
2022-08-19T00:01:43.123Z,19.60
2022-08-19T00:04:13.231Z,17.60
2022-08-19T00:06:43.488Z,21.33
2022-08-19T00:09:13.772Z,17.53
2022-08-19T00:11:41.633Z,18.13
2022-08-19T00:14:12.360Z,20.60
2022-08-19T00:16:42.711Z,19.00
2022-08-19T00:19:11.369Z,21.77
2022-08-19T00:21:40.762Z,22.77
2022-08-19T00:24:09.778Z,20.90
2022-08-19T00:26:38.393Z,23.97
2022-08-19T00:29:07.996Z,25.47
2022-08-19T00:31:36.656Z,22.13
2022-08-19T00:34:05.884Z,22.87
2022-08-19T00:36:34.032Z,23.40
2022-08-19T00:39:02.363Z,22.50
2022-08-19T00:41:30.445Z,22.63
2022-08-19T00:44:03.363Z,24.07
2022-08-19T00:46:31.485Z,22.37
2022-08-19T00:49:00.583Z,27.07
2022-08-19T00:51:33.403Z,20.77
2022-08-19T00:54:02.715Z,23.87
2022-08-19T00:56:31.592Z,24.80
2022-08-19T00:59:00.919Z,28.80
2022-08-19T01:01:28.824Z,26.07
2022-08-19T01:03:58.407Z,29.30
2022-08-19T01:06:27.290Z,24.63
2022-08-19T01:08:57.447Z,22.70
2022-08-19T01:11:25.674Z,22.47
2022-08-19T01:13:54.858Z,22.03
2022-08-19T01:16:25.702Z,21.63
2022-08-19T01:18:53.474Z,23.67
2022-08-19T01:21:28.301Z,22.20
2022-08-19T01:23:57.445Z,20.30
2022-08-19T01:26:27.355Z,20.57
2022-08-19T01:29:00.946Z,20.13
2022-08-19T01:31:32.662Z,20.50
2022-08-19T01:34:02.646Z,21.50
2022-08-19T01:36:32.555Z,20.30
2022-08-19T01:39:03.847Z,23.03
2022-08-19T01:41:31.612Z,21.47
2022-08-19T01:44:09.803Z,17.27
2022-08-19T01:46:46.346Z,23.13
2022-08-19T01:49:14.190Z,17.40
2022-08-19T01:51:41.959Z,21.53
2022-08-19T01:54:13.551Z,21.50
2022-08-19T01:56:41.320Z,21.23
2022-08-19T01:59:13.975Z,18.67
2022-08-19T02:01:42.289Z,18.50
2022-08-19T02:04:10.412Z,20.50
2022-08-19T02:06:38.443Z,17.70
2022-08-19T02:09:09.013Z,17.30
2022-08-19T02:11:40.005Z,19.50
2022-08-19T02:14:09.696Z,19.50
2022-08-19T02:16:39.276Z,18.30
2022-08-19T02:19:07.188Z,19.73
2022-08-19T02:21:36.635Z,18.17
2022-08-19T02:24:05.148Z,17.50
2022-08-19T02:26:34.011Z,17.87
2022-08-19T02:29:03.119Z,20.13
2022-08-19T02:31:30.993Z,17.23
2022-08-19T02:33:59.266Z,18.20
2022-08-19T02:36:28.745Z,20.87
2022-08-19T02:38:57.326Z,21.60
2022-08-19T02:41:29.077Z,19.73
2022-08-19T02:44:28.612Z,19.60
2022-08-19T02:46:51.576Z,20.60
2022-08-19T02:49:20.598Z,18.50
2022-08-19T02:51:49.139Z,20.00
2022-08-19T02:54:17.235Z,19.03
2022-08-19T02:56:47.319Z,19.40
2022-08-19T02:59:15.170Z,19.77
2022-08-19T03:01:43.524Z,21.10
2022-08-19T03:04:15.362Z,20.07
2022-08-19T03:06:45.101Z,20.67
2022-08-19T03:09:13.898Z,24.47
2022-08-19T03:11:42.473Z,22.53
2022-08-19T03:14:11.931Z,22.00
2022-08-19T03:16:46.723Z,20.47
2022-08-19T03:19:18.348Z,30.83
2022-08-19T03:21:47.073Z,24.60
2022-08-19T03:24:15.734Z,25.70
2022-08-19T03:26:46.061Z,25.00
2022-08-19T03:29:14.130Z,27.97
2022-08-19T03:31:52.522Z,30.00
2022-08-19T03:34:27.295Z,28.30
2022-08-19T03:36:56.889Z,31.30
2022-08-19T03:39:25.887Z,24.20
2022-08-19T03:42:32.733Z,28.30
2022-08-19T03:44:46.609Z,27.27
2022-08-19T03:47:17.497Z,26.23
2022-08-19T03:49:47.186Z,26.87
2022-08-19T03:52:15.147Z,24.73
2022-08-19T03:54:43.286Z,28.30
2022-08-19T03:57:12.097Z,25.57
2022-08-19T03:59:40.644Z,24.87
2022-08-19T04:02:12.207Z,25.87
2022-08-19T04:04:41.554Z,26.37
2022-08-19T04:07:11.961Z,23.73
2022-08-19T04:09:39.838Z,27.47
2022-08-19T04:12:08.291Z,27.83
2022-08-19T04:14:36.618Z,26.83
2022-08-19T04:17:05.594Z,26.63
2022-08-19T04:19:34.302Z,26.23
2022-08-19T04:22:02.355Z,25.53
2022-08-19T04:24:31.880Z,25.20
2022-08-19T04:27:01.493Z,21.03
2022-08-19T04:29:29.808Z,22.37
2022-08-19T04:31:59.141Z,21.77
2022-08-19T04:34:29.544Z,23.30
2022-08-19T04:36:59.240Z,25.40
2022-08-19T04:39:45.439Z,27.27
2022-08-19T04:42:32.395Z,23.93
2022-08-19T04:45:00.584Z,28.00
2022-08-19T04:47:48.188Z,24.33
2022-08-19T04:50:16.965Z,27.07
2022-08-19T04:52:44.708Z,23.43
2022-08-19T04:55:13.559Z,25.40
2022-08-19T04:57:42.695Z,23.33
2022-08-19T05:00:11.753Z,23.73
2022-08-19T05:02:40.184Z,27.20
2022-08-19T05:05:08.587Z,25.50
2022-08-19T05:07:36.548Z,26.00
2022-08-19T05:10:05.577Z,23.37
2022-08-19T05:12:33.584Z,25.43
2022-08-19T05:15:06.597Z,25.93
2022-08-19T05:17:38.275Z,23.40
2022-08-19T05:20:26.390Z,27.37
2022-08-19T05:22:54.342Z,25.40
2022-08-19T05:25:23.507Z,26.50
2022-08-19T05:27:51.600Z,26.63
2022-08-19T05:30:33.379Z,27.10
2022-08-19T05:33:10.357Z,26.00
2022-08-19T05:35:38.514Z,24.93
2022-08-19T05:38:08.170Z,25.83
2022-08-19T05:40:36.906Z,25.47
2022-08-19T05:43:04.867Z,29.30
2022-08-19T05:45:34.421Z,29.40
2022-08-19T05:48:02.181Z,27.00
2022-08-19T05:50:30.578Z,28.90
2022-08-19T05:52:58.344Z,27.57
2022-08-19T05:55:26.087Z,24.83
2022-08-19T05:57:53.934Z,28.80
2022-08-19T06:00:24.709Z,26.63
2022-08-19T06:02:55.660Z,24.67
2022-08-19T06:05:23.771Z,23.57
2022-08-19T06:07:51.556Z,24.77
2022-08-19T06:10:19.363Z,24.30
2022-08-19T06:12:47.074Z,25.10
2022-08-19T06:15:15.996Z,22.53
2022-08-19T06:17:45.388Z,23.10
2022-08-19T06:20:16.346Z,20.07
2022-08-19T06:22:45.722Z,22.00
2022-08-19T06:25:15.086Z,23.80
2022-08-19T06:28:14.527Z,23.10
2022-08-19T06:30:31.583Z,21.33
2022-08-19T06:32:59.983Z,23.50
2022-08-19T06:35:30.403Z,24.13
2022-08-19T06:37:58.295Z,22.77
2022-08-19T06:40:26.515Z,25.70
2022-08-19T06:42:55.509Z,20.80
2022-08-19T06:45:25.175Z,24.20
2022-08-19T06:48:02.617Z,22.50
2022-08-19T06:50:32.423Z,22.27
2022-08-19T06:53:04.355Z,24.43
2022-08-19T06:55:33.285Z,18.77
2022-08-19T06:58:04.634Z,17.63
2022-08-19T07:00:32.634Z,18.93
2022-08-19T07:03:06.176Z,20.57
2022-08-19T07:05:45.408Z,19.70
2022-08-19T07:08:14.052Z,16.73
2022-08-19T07:10:45.384Z,18.20
2022-08-19T07:13:13.361Z,14.83
2022-08-19T07:15:41.097Z,17.30
2022-08-19T07:18:11.623Z,15.87
2022-08-19T07:20:41.860Z,15.53
2022-08-19T07:23:10.515Z,14.33
2022-08-19T07:25:44.779Z,16.30
2022-08-19T07:28:24.611Z,17.27
2022-08-19T07:30:53.000Z,15.40
2022-08-19T07:33:21.161Z,15.43
2022-08-19T07:35:50.720Z,17.27
2022-08-19T07:38:24.555Z,16.77
2022-08-19T07:40:58.637Z,19.47
2022-08-19T07:43:35.002Z,17.30
2022-08-19T07:46:03.111Z,17.43
2022-08-19T07:48:31.182Z,19.90
2022-08-19T07:51:03.416Z,18.97
2022-08-19T07:53:36.732Z,16.43
2022-08-19T07:56:07.643Z,16.90
2022-08-19T07:58:38.958Z,15.80
2022-08-19T08:01:09.149Z,17.27
2022-08-19T08:03:56.546Z,16.83
2022-08-19T08:06:43.174Z,14.53
2022-08-19T08:09:18.482Z,14.90
2022-08-19T08:11:50.488Z,15.23
2022-08-19T08:14:29.027Z,14.33
2022-08-19T08:16:58.111Z,13.30
2022-08-19T08:19:30.047Z,14.50
2022-08-19T08:22:01.320Z,13.60
2022-08-19T08:24:32.320Z,12.77
2022-08-19T08:27:01.599Z,12.17
2022-08-19T08:29:34.728Z,14.20
2022-08-19T08:32:03.451Z,12.20
2022-08-19T08:34:31.219Z,13.50
2022-08-19T08:37:00.319Z,15.00
2022-08-19T08:39:29.714Z,13.90
2022-08-19T08:42:16.729Z,11.70
2022-08-19T08:47:33.096Z,12.57
2022-08-19T08:50:04.731Z,12.50
2022-08-19T08:52:37.795Z,13.30
2022-08-19T08:55:10.683Z,14.90
2022-08-19T08:57:43.395Z,15.50
2022-08-19T09:00:17.415Z,14.40
2022-08-19T09:02:51.006Z,16.30
2022-08-19T09:05:22.074Z,13.97
2022-08-19T09:07:59.290Z,14.50
2022-08-19T09:10:33.648Z,13.93
2022-08-19T09:13:13.517Z,14.40
2022-08-19T09:15:45.989Z,18.43
2022-08-19T09:18:19.124Z,15.13
2022-08-19T09:20:48.912Z,15.23
2022-08-19T09:23:18.155Z,15.47
2022-08-19T09:25:54.638Z,18.83
2022-08-19T09:28:27.041Z,17.80
2022-08-19T09:30:55.186Z,15.97
2022-08-19T09:33:23.394Z,14.60
2022-08-19T09:35:53.616Z,17.27
2022-08-19T09:38:23.079Z,14.77
2022-08-19T09:40:51.266Z,16.77
2022-08-19T09:43:33.009Z,16.87
2022-08-19T09:46:02.224Z,15.00
2022-08-19T09:48:29.971Z,20.17
2022-08-19T09:51:05.223Z,18.10
2022-08-19T09:53:34.527Z,13.50
2022-08-19T09:56:06.915Z,23.83
2022-08-19T09:58:37.213Z,17.03
2022-08-19T10:01:06.819Z,15.77
2022-08-19T10:03:36.883Z,12.73
2022-08-19T10:06:15.072Z,15.38
2022-08-19T10:08:50.430Z,14.70
2022-08-19T10:11:27.840Z,15.63
2022-08-19T10:14:02.500Z,16.90
2022-08-19T10:16:31.056Z,12.80
2022-08-19T10:18:59.355Z,14.00
2022-08-19T10:21:32.133Z,15.93
2022-08-19T10:24:04.930Z,14.73
2022-08-19T10:26:35.558Z,13.13
2022-08-19T10:29:05.783Z,13.17
2022-08-19T10:32:01.058Z,13.77
2022-08-19T10:34:27.909Z,13.40
2022-08-19T10:37:00.975Z,14.20
2022-08-19T10:39:32.649Z,13.07
2022-08-19T10:42:13.890Z,21.83
2022-08-19T10:44:42.381Z,16.00
2022-08-19T10:47:21.836Z,16.10
2022-08-19T10:50:11.743Z,15.77
2022-08-19T10:52:40.095Z,14.70
2022-08-19T10:55:38.569Z,12.93
2022-08-19T10:58:11.258Z,12.13
2022-08-19T11:00:39.140Z,13.60
2022-08-19T11:03:06.906Z,13.13
2022-08-19T11:05:40.209Z,13.77
2022-08-19T11:08:22.442Z,15.40
2022-08-19T11:10:54.477Z,15.03
2022-08-19T11:13:22.996Z,12.17
2022-08-19T11:16:00.158Z,12.00
2022-08-19T11:18:30.675Z,17.47
2022-08-19T11:21:08.045Z,18.67
2022-08-19T11:23:35.884Z,13.30
2022-08-19T11:26:05.300Z,11.27
2022-08-19T11:28:33.043Z,12.03
2022-08-19T11:31:00.929Z,11.93
2022-08-19T11:33:28.700Z,9.67
2022-08-19T11:35:58.560Z,12.63
2022-08-19T11:38:26.719Z,11.13
2022-08-19T11:40:58.671Z,11.80
2022-08-19T11:43:28.106Z,13.60
2022-08-19T11:45:57.099Z,10.17
2022-08-19T11:48:26.511Z,11.00
2022-08-19T11:50:56.299Z,10.20
2022-08-19T11:53:24.762Z,9.50
2022-08-19T11:55:57.445Z,10.73
2022-08-19T11:58:26.815Z,10.87
2022-08-19T12:00:55.161Z,10.43
2022-08-19T12:03:23.333Z,10.73
2022-08-19T12:05:51.735Z,9.70
2022-08-19T12:08:20.604Z,8.80
2022-08-19T12:10:48.444Z,10.17
2022-08-19T12:13:19.510Z,9.63
2022-08-19T12:15:50.391Z,9.13
2022-08-19T12:18:18.106Z,13.07
2022-08-19T12:20:46.801Z,8.67
2022-08-19T12:23:15.193Z,12.90
2022-08-19T12:25:50.893Z,8.63
2022-08-19T12:28:19.142Z,8.30
2022-08-19T12:30:48.633Z,7.87
2022-08-19T12:33:16.504Z,10.37
2022-08-19T12:35:45.831Z,12.00
2022-08-19T12:38:14.371Z,8.33
2022-08-19T12:40:43.089Z,7.70
2022-08-19T12:43:12.501Z,11.23
2022-08-19T12:45:40.240Z,7.73
2022-08-19T12:48:34.866Z,11.13
2022-08-19T12:50:59.582Z,8.63
2022-08-19T12:53:27.416Z,8.40
2022-08-19T12:55:57.839Z,7.90
2022-08-19T12:58:27.425Z,8.23
2022-08-19T13:00:55.703Z,8.33
2022-08-19T13:03:29.942Z,7.33
2022-08-19T13:05:58.031Z,8.47
2022-08-19T13:08:25.797Z,10.27
2022-08-19T13:10:54.499Z,11.53
2022-08-19T13:13:22.591Z,7.60
2022-08-19T13:15:50.367Z,9.27
2022-08-19T13:18:18.106Z,7.53
2022-08-19T13:20:52.824Z,7.20
2022-08-19T13:23:21.045Z,8.30
2022-08-19T13:25:58.164Z,8.03
2022-08-19T13:28:29.277Z,8.43
2022-08-19T13:31:15.049Z,6.90
2022-08-19T13:33:42.782Z,7.30
2022-08-19T13:36:11.955Z,7.67
2022-08-19T13:38:40.068Z,9.70
2022-08-19T13:41:12.127Z,7.47
2022-08-19T13:43:42.465Z,7.20
2022-08-19T13:46:14.180Z,9.27
2022-08-19T13:48:42.667Z,8.30
2022-08-19T13:51:11.948Z,7.10
2022-08-19T13:53:40.400Z,8.60
2022-08-19T13:56:09.147Z,6.63
2022-08-19T13:58:37.295Z,7.90
2022-08-19T14:01:06.557Z,7.70
2022-08-19T14:03:36.088Z,8.03
2022-08-19T14:06:04.374Z,8.03
2022-08-19T14:08:33.509Z,8.13
2022-08-19T14:11:06.588Z,8.87
2022-08-19T14:13:34.919Z,6.60
2022-08-19T14:16:03.033Z,6.40
2022-08-19T14:18:30.932Z,9.00
2022-08-19T14:20:58.931Z,6.73
2022-08-19T14:23:26.730Z,10.53
2022-08-19T14:26:04.688Z,7.80
2022-08-19T14:28:32.566Z,9.27
2022-08-19T14:31:00.332Z,7.67
2022-08-19T14:33:28.350Z,7.70
2022-08-19T14:35:59.688Z,7.37
2022-08-19T14:38:31.717Z,7.27
2022-08-19T14:41:10.477Z,8.97
2022-08-19T14:43:39.227Z,8.67
2022-08-19T14:46:07.363Z,7.93
2022-08-19T14:48:37.206Z,8.30
2022-08-19T14:51:09.294Z,7.43
2022-08-19T14:53:37.280Z,10.67
2022-08-19T14:56:11.694Z,8.63
2022-08-19T14:58:41.118Z,7.40
2022-08-19T15:01:09.733Z,8.90
2022-08-19T15:03:37.547Z,7.60
2022-08-19T15:06:07.113Z,6.50
2022-08-19T15:08:37.862Z,8.10
2022-08-19T15:11:11.630Z,7.50
2022-08-19T15:13:40.042Z,7.90
2022-08-19T15:16:17.816Z,8.13
2022-08-19T15:18:47.687Z,10.80
2022-08-19T15:21:17.405Z,6.90
2022-08-19T15:23:55.076Z,8.93
2022-08-19T15:26:24.155Z,7.73
2022-08-19T15:28:52.526Z,8.63
2022-08-19T15:31:28.290Z,8.07
2022-08-19T15:33:58.244Z,8.03
2022-08-19T15:36:27.000Z,9.80
2022-08-19T15:38:55.485Z,8.57
2022-08-19T15:41:27.018Z,9.37
2022-08-19T15:43:56.836Z,7.40
2022-08-19T15:46:28.103Z,8.20
2022-08-19T15:48:59.671Z,7.30
2022-08-19T15:51:30.301Z,7.63
2022-08-19T15:53:58.317Z,8.03
2022-08-19T15:56:58.204Z,9.53
2022-08-19T15:59:52.797Z,8.30
2022-08-19T16:02:40.139Z,10.70
2022-08-19T16:05:30.030Z,7.20
2022-08-19T16:07:58.398Z,6.97
2022-08-19T16:10:28.147Z,7.30
2022-08-19T16:12:58.391Z,8.90
2022-08-19T16:15:27.782Z,7.97
2022-08-19T16:17:57.186Z,9.63
2022-08-19T16:20:27.365Z,6.88
2022-08-19T16:22:56.415Z,6.73
2022-08-19T16:25:29.072Z,7.60
2022-08-19T16:28:07.168Z,7.80
2022-08-19T16:30:36.662Z,7.30
2022-08-19T16:33:04.496Z,7.47
2022-08-19T16:35:32.227Z,7.67
2022-08-19T16:38:00.138Z,7.13
2022-08-19T16:40:27.864Z,7.60
2022-08-19T16:42:56.424Z,6.20
2022-08-19T16:45:25.964Z,7.27
2022-08-19T16:47:53.810Z,8.00
2022-08-19T16:50:29.307Z,6.87
2022-08-19T16:53:09.813Z,8.60
2022-08-19T16:55:37.640Z,6.70
2022-08-19T16:58:05.774Z,8.23
2022-08-19T17:00:35.306Z,8.10
2022-08-19T17:03:06.805Z,7.93
2022-08-19T17:05:34.524Z,6.90
2022-08-19T17:08:02.323Z,8.80
2022-08-19T17:10:30.079Z,6.40
2022-08-19T17:12:57.830Z,10.73
2022-08-19T17:15:25.905Z,6.30
2022-08-19T17:18:00.006Z,7.90
2022-08-19T17:20:28.030Z,7.37
2022-08-19T17:22:56.694Z,6.63
2022-08-19T17:25:24.591Z,7.80
2022-08-19T17:27:52.687Z,8.17
2022-08-19T17:30:21.208Z,8.37
2022-08-19T17:32:49.343Z,7.20
2022-08-19T17:35:24.065Z,7.50
2022-08-19T17:37:52.204Z,6.90
2022-08-19T17:40:23.956Z,7.07
2022-08-19T17:42:52.596Z,6.50
2022-08-19T17:45:20.819Z,6.70
2022-08-19T17:47:48.598Z,7.10
2022-08-19T17:50:17.937Z,7.10
2022-08-19T17:52:45.807Z,6.50
2022-08-19T17:55:13.618Z,6.87
2022-08-19T17:57:46.072Z,10.03
2022-08-19T18:00:16.299Z,7.63
2022-08-19T18:02:47.800Z,6.57
2022-08-19T18:05:20.722Z,6.67
2022-08-19T18:07:51.287Z,7.07
2022-08-19T18:10:19.855Z,6.27
2022-08-19T18:12:48.504Z,6.78
2022-08-19T18:15:20.452Z,9.17
2022-08-19T18:17:48.289Z,6.53
2022-08-19T18:20:17.742Z,7.33
2022-08-19T18:22:48.617Z,6.93
2022-08-19T18:25:22.527Z,9.40
2022-08-19T18:27:50.432Z,7.17
2022-08-19T18:30:20.150Z,7.63
2022-08-19T18:32:49.586Z,6.60
2022-08-19T18:35:20.345Z,8.03
2022-08-19T18:37:50.104Z,9.17
2022-08-19T18:40:38.668Z,8.70
2022-08-19T18:43:25.201Z,9.07
2022-08-19T18:46:10.661Z,11.83
2022-08-19T18:48:57.279Z,12.63
2022-08-19T18:51:28.441Z,8.57
2022-08-19T18:53:58.711Z,8.90
2022-08-19T18:56:31.639Z,9.53
2022-08-19T18:58:59.988Z,7.97
2022-08-19T19:01:30.851Z,9.00
2022-08-19T19:04:01.984Z,7.40
2022-08-19T19:06:34.699Z,8.47
2022-08-19T19:09:04.544Z,8.20
2022-08-19T19:11:36.242Z,10.20
2022-08-19T19:14:10.330Z,7.57
2022-08-19T19:16:39.059Z,9.60
2022-08-19T19:19:07.701Z,8.80
2022-08-19T19:21:36.279Z,7.07
2022-08-19T19:24:05.963Z,9.97
2022-08-19T19:26:33.928Z,8.27
2022-08-19T19:29:01.671Z,8.77
2022-08-19T19:31:29.656Z,8.90
2022-08-19T19:33:57.561Z,9.70
2022-08-19T19:36:25.387Z,7.90
2022-08-19T19:38:53.770Z,10.43
2022-08-19T19:41:25.064Z,8.90
2022-08-19T19:44:09.865Z,8.53
2022-08-19T19:46:43.342Z,8.87
2022-08-19T19:49:12.578Z,8.87
2022-08-19T19:51:41.158Z,12.20
2022-08-19T19:54:13.474Z,10.13
2022-08-19T19:56:43.365Z,9.00
2022-08-19T19:59:11.326Z,8.07
2022-08-19T20:01:39.516Z,8.53
2022-08-19T20:04:12.014Z,7.70
2022-08-19T20:06:40.086Z,9.80
2022-08-19T20:09:10.690Z,10.23
2022-08-19T20:11:42.439Z,9.67
2022-08-19T20:14:13.483Z,10.03
2022-08-19T20:16:43.486Z,9.97
2022-08-19T20:19:12.644Z,8.37
2022-08-19T20:21:43.684Z,9.10
2022-08-19T20:24:14.926Z,11.33
2022-08-19T20:26:44.615Z,7.80
2022-08-19T20:29:39.527Z,8.43
2022-08-19T20:32:06.403Z,8.97
2022-08-19T20:34:34.283Z,8.00
2022-08-19T20:37:02.717Z,10.00
2022-08-19T20:39:30.452Z,8.10
2022-08-19T20:41:58.273Z,8.73
2022-08-19T20:44:27.512Z,9.67
2022-08-19T20:46:58.456Z,9.00
2022-08-19T20:49:27.823Z,9.30
2022-08-19T20:51:56.311Z,8.33
2022-08-19T20:54:24.619Z,7.93
2022-08-19T20:56:52.890Z,9.37
2022-08-19T20:59:20.920Z,9.13
2022-08-19T21:01:51.743Z,10.77
2022-08-19T21:04:20.046Z,11.70
2022-08-19T21:06:47.887Z,9.67
2022-08-19T21:09:15.896Z,9.93
2022-08-19T21:11:44.052Z,9.40
2022-08-19T21:14:12.795Z,10.07
2022-08-19T21:16:40.544Z,10.83
2022-08-19T21:19:09.795Z,8.83
2022-08-19T21:21:37.583Z,13.67
2022-08-19T21:24:05.829Z,13.37
2022-08-19T21:26:33.735Z,10.67
2022-08-19T21:29:01.478Z,11.03
2022-08-19T21:31:29.257Z,9.77
2022-08-19T21:33:57.075Z,10.90
2022-08-19T21:36:26.916Z,12.30
2022-08-19T21:38:55.053Z,8.80
2022-08-19T21:41:23.049Z,10.43
2022-08-19T21:43:51.156Z,9.43
2022-08-19T21:46:18.911Z,9.00
2022-08-19T21:48:46.667Z,9.00
2022-08-19T21:51:14.585Z,9.37
2022-08-19T21:53:43.756Z,9.37
2022-08-19T21:56:11.516Z,8.37
2022-08-19T21:58:39.415Z,9.70
2022-08-19T22:01:08.474Z,8.70
2022-08-19T22:03:38.031Z,9.03
2022-08-19T22:06:06.752Z,11.03
2022-08-19T22:08:34.545Z,9.03
2022-08-19T22:11:04.971Z,10.20
2022-08-19T22:13:39.897Z,12.23
2022-08-19T22:16:09.461Z,8.10
2022-08-19T22:18:37.217Z,9.70
2022-08-19T22:21:11.288Z,10.38
2022-08-19T22:23:39.748Z,8.73
2022-08-19T22:26:09.384Z,8.60
2022-08-19T22:28:37.606Z,10.10
2022-08-19T22:31:07.923Z,9.57
2022-08-19T22:33:37.330Z,9.17
2022-08-19T22:36:07.401Z,9.27
2022-08-19T22:38:35.632Z,8.43
2022-08-19T22:41:03.467Z,9.27
2022-08-19T22:43:33.963Z,11.60
2022-08-19T22:46:02.443Z,9.37
2022-08-19T22:48:32.541Z,8.77
2022-08-19T22:51:18.457Z,9.53
2022-08-19T22:53:47.765Z,10.77
2022-08-19T22:56:18.062Z,8.50
2022-08-19T22:58:50.086Z,11.43
2022-08-19T23:01:27.489Z,9.47
2022-08-19T23:03:58.934Z,11.67
2022-08-19T23:06:29.740Z,9.93
2022-08-19T23:09:02.124Z,10.60
2022-08-19T23:11:35.531Z,10.60
2022-08-19T23:14:06.118Z,8.47
2022-08-19T23:16:36.522Z,8.93
2022-08-19T23:19:04.555Z,8.43
2022-08-19T23:21:32.358Z,8.80
2022-08-19T23:24:00.115Z,9.87
2022-08-19T23:26:27.882Z,10.50
2022-08-19T23:29:13.239Z,8.83
2022-08-19T23:31:42.335Z,10.77
2022-08-19T23:34:10.123Z,10.10
2022-08-19T23:36:38.713Z,9.00
2022-08-19T23:39:06.471Z,9.27
2022-08-19T23:41:34.236Z,10.00
2022-08-19T23:44:02.038Z,10.10
2022-08-19T23:46:32.167Z,16.03
2022-08-19T23:49:21.268Z,9.17
2022-08-19T23:51:49.023Z,9.73
2022-08-19T23:54:16.758Z,12.57
2022-08-19T23:56:44.516Z,12.47
2022-08-19T23:59:12.278Z,9.07
